Aérodrome :
LOGIN :

S'inscrire | Disclaimer

   EN    FR    IT 

 










Légende :    VFR   VFR Marginal   IFR   IFR Intensif   IFR Très Intensif
Visi : 
Plafond : 
>= 8 km
>= 3000ft
5 à 8 km
1000 à 3000 ft
1500m à 5 km
500 à 1000 ft
800 à 1500m
200 à 500 ft
< 800m
< 200 ft
Symboles :   Orages  Brouillard  Fortes neiges  Fortes précipitations  Vent > 20 kt
SIGMETs :   Divers  Orages  Givrage  Turbulence  Onde Orograph.  Cendres Volcan.






- Altitude de l'aérodrome : 36 ft
- Code IATA : LTQ


LFAT - Le Touquet

DERNIER METAR :
  • 230830Z AUTO 26013KT 220V300 9999 FEW019 OVC046 18/14 Q1017 TEMPO 26015G25KT

METARs EXPIRÉS :
  • 230800Z AUTO 26014G25KT 210V290 9999 SCT015 OVC045 18/14 Q1017 NOSIG
  • 230730Z AUTO 26012KT 220V290 9999 BKN016 OVC045 18/14 Q1017 TEMPO 26015G25KT
  • 230700Z AUTO 26013KT 230V290 9999 OVC044 18/14 Q1017 TEMPO 26015G25KT BECMG OVC005
  • 230630Z AUTO 26013KT 230V300 9999 FEW014 SCT023 OVC042 18/15 Q1016 TEMPO 26015G25KT BECMG OVC005
  • 230600Z AUTO 26013G23KT 230V290 9999 OVC011 18/16 Q1016 BECMG OVC005
  • 230530Z AUTO 25010KT 220V290 9999 OVC008 18/16 Q1016 TEMPO 26015G25KT
  • 230500Z AUTO 25011KT 210V290 9999 OVC008 18/17 Q1016
  • 230430Z AUTO 26012KT 9999 BKN006 OVC010 18/17 Q1016
  • 230400Z AUTO 26010KT 220V280 9999 OVC005 18/17 Q1016

TAF TAF LFAT
Valide du 23 à 09h jusqu'au 23 à 18h UTC


230800Z 2309/2318 26012KT 9999 SCT015
TEMPO 2309/2315 26015G25KT
ATIS : +33 3 21 06 62 84



MET'MAP, la Météo Aéronautique d'un coup d'oeil ! - Copyright ORBIFLY Décembre 2007 - Disclaimer

ORBIFLY MET'MAP TEAM :

Programmation & Développement : Alexandra Zaïnal
Sur une idée originale de : Baudouin d'Aumeries
Soutien technique & logistique : Manuel Goepfert
Assistance : Marc-Olivier Méhu




SOURCES & CREDITS :

   NOAA